sensor_id;sensor_type;location;lat;lon;timestamp;P1;durP1;ratioP1;P2;durP2;ratioP2
4047;SDS011;2038;51.728;6.674;2022-08-02T00:00:14;4.43;;;3.60;;
4047;SDS011;2038;51.728;6.674;2022-08-02T00:02:41;4.97;;;4.00;;
4047;SDS011;2038;51.728;6.674;2022-08-02T00:05:10;5.23;;;3.80;;
4047;SDS011;2038;51.728;6.674;2022-08-02T00:07:37;9.07;;;4.10;;
4047;SDS011;2038;51.728;6.674;2022-08-02T00:10:05;5.23;;;3.97;;
4047;SDS011;2038;51.728;6.674;2022-08-02T00:12:34;5.63;;;4.10;;
4047;SDS011;2038;51.728;6.674;2022-08-02T00:15:02;3.80;;;3.23;;
4047;SDS011;2038;51.728;6.674;2022-08-02T00:17:31;8.13;;;4.80;;
4047;SDS011;2038;51.728;6.674;2022-08-02T00:19:57;4.17;;;3.63;;
4047;SDS011;2038;51.728;6.674;2022-08-02T00:22:23;4.77;;;4.27;;
4047;SDS011;2038;51.728;6.674;2022-08-02T00:24:50;6.53;;;3.90;;
4047;SDS011;2038;51.728;6.674;2022-08-02T00:27:16;5.60;;;3.40;;
4047;SDS011;2038;51.728;6.674;2022-08-02T00:29:42;8.53;;;3.57;;
4047;SDS011;2038;51.728;6.674;2022-08-02T00:32:08;10.90;;;4.67;;
4047;SDS011;2038;51.728;6.674;2022-08-02T00:34:35;4.10;;;3.70;;
4047;SDS011;2038;51.728;6.674;2022-08-02T00:37:01;7.70;;;3.50;;
4047;SDS011;2038;51.728;6.674;2022-08-02T00:39:27;5.30;;;4.43;;
4047;SDS011;2038;51.728;6.674;2022-08-02T00:41:53;4.53;;;3.90;;
4047;SDS011;2038;51.728;6.674;2022-08-02T00:44:20;10.00;;;4.43;;
4047;SDS011;2038;51.728;6.674;2022-08-02T00:46:46;6.10;;;4.50;;
4047;SDS011;2038;51.728;6.674;2022-08-02T00:49:13;7.33;;;3.97;;
4047;SDS011;2038;51.728;6.674;2022-08-02T00:51:40;4.63;;;3.90;;
4047;SDS011;2038;51.728;6.674;2022-08-02T00:54:06;6.90;;;4.00;;
4047;SDS011;2038;51.728;6.674;2022-08-02T00:56:33;6.87;;;5.70;;
4047;SDS011;2038;51.728;6.674;2022-08-02T00:58:59;8.90;;;5.30;;
4047;SDS011;2038;51.728;6.674;2022-08-02T01:01:27;5.80;;;4.73;;
4047;SDS011;2038;51.728;6.674;2022-08-02T01:04:12;6.23;;;4.70;;
4047;SDS011;2038;51.728;6.674;2022-08-02T01:06:39;6.73;;;4.73;;
4047;SDS011;2038;51.728;6.674;2022-08-02T01:09:07;5.27;;;4.77;;
4047;SDS011;2038;51.728;6.674;2022-08-02T01:11:34;8.00;;;5.27;;
4047;SDS011;2038;51.728;6.674;2022-08-02T01:14:03;5.13;;;4.40;;
4047;SDS011;2038;51.728;6.674;2022-08-02T01:16:38;5.43;;;4.80;;
4047;SDS011;2038;51.728;6.674;2022-08-02T01:19:25;7.63;;;5.10;;
4047;SDS011;2038;51.728;6.674;2022-08-02T01:22:09;6.53;;;4.83;;
4047;SDS011;2038;51.728;6.674;2022-08-02T01:28:34;8.37;;;5.00;;
4047;SDS011;2038;51.728;6.674;2022-08-02T01:31:15;6.90;;;4.80;;
4047;SDS011;2038;51.728;6.674;2022-08-02T01:37:08;9.30;;;4.50;;
4047;SDS011;2038;51.728;6.674;2022-08-02T01:39:46;7.57;;;5.07;;
4047;SDS011;2038;51.728;6.674;2022-08-02T01:42:21;8.70;;;4.60;;
4047;SDS011;2038;51.728;6.674;2022-08-02T01:44:52;14.97;;;5.97;;
4047;SDS011;2038;51.728;6.674;2022-08-02T01:47:22;12.37;;;5.40;;
4047;SDS011;2038;51.728;6.674;2022-08-02T01:49:57;7.40;;;5.03;;
4047;SDS011;2038;51.728;6.674;2022-08-02T01:52:28;8.27;;;5.60;;
4047;SDS011;2038;51.728;6.674;2022-08-02T01:55:02;5.80;;;4.77;;
4047;SDS011;2038;51.728;6.674;2022-08-02T01:57:34;7.20;;;6.30;;
4047;SDS011;2038;51.728;6.674;2022-08-02T02:00:08;6.87;;;6.17;;
4047;SDS011;2038;51.728;6.674;2022-08-02T02:02:37;11.73;;;5.80;;
4047;SDS011;2038;51.728;6.674;2022-08-02T02:05:12;7.63;;;5.87;;
4047;SDS011;2038;51.728;6.674;2022-08-02T02:07:42;7.57;;;6.20;;
4047;SDS011;2038;51.728;6.674;2022-08-02T02:10:14;5.93;;;5.30;;
4047;SDS011;2038;51.728;6.674;2022-08-02T02:12:51;11.40;;;6.90;;
4047;SDS011;2038;51.728;6.674;2022-08-02T02:15:22;10.00;;;6.20;;
4047;SDS011;2038;51.728;6.674;2022-08-02T02:17:51;10.90;;;6.10;;
4047;SDS011;2038;51.728;6.674;2022-08-02T02:20:21;10.83;;;6.90;;
4047;SDS011;2038;51.728;6.674;2022-08-02T02:22:48;8.53;;;5.90;;
4047;SDS011;2038;51.728;6.674;2022-08-02T02:25:16;8.47;;;6.60;;
4047;SDS011;2038;51.728;6.674;2022-08-02T02:27:49;8.50;;;6.67;;
4047;SDS011;2038;51.728;6.674;2022-08-02T02:30:27;7.47;;;6.23;;
4047;SDS011;2038;51.728;6.674;2022-08-02T02:32:59;9.53;;;6.13;;
4047;SDS011;2038;51.728;6.674;2022-08-02T02:35:33;9.10;;;6.57;;
4047;SDS011;2038;51.728;6.674;2022-08-02T02:38:02;8.03;;;6.23;;
4047;SDS011;2038;51.728;6.674;2022-08-02T02:40:33;6.23;;;5.63;;
4047;SDS011;2038;51.728;6.674;2022-08-02T02:43:02;8.40;;;6.43;;
4047;SDS011;2038;51.728;6.674;2022-08-02T02:45:33;10.50;;;5.63;;
4047;SDS011;2038;51.728;6.674;2022-08-02T02:48:03;6.13;;;5.33;;
4047;SDS011;2038;51.728;6.674;2022-08-02T02:50:32;7.83;;;6.30;;
4047;SDS011;2038;51.728;6.674;2022-08-02T02:53:00;6.80;;;4.97;;
4047;SDS011;2038;51.728;6.674;2022-08-02T02:55:28;11.13;;;5.67;;
4047;SDS011;2038;51.728;6.674;2022-08-02T02:57:56;8.70;;;6.47;;
4047;SDS011;2038;51.728;6.674;2022-08-02T03:00:22;9.37;;;6.90;;
4047;SDS011;2038;51.728;6.674;2022-08-02T03:03:08;9.43;;;6.00;;
4047;SDS011;2038;51.728;6.674;2022-08-02T03:05:37;6.63;;;5.90;;
4047;SDS011;2038;51.728;6.674;2022-08-02T03:08:03;8.00;;;5.83;;
4047;SDS011;2038;51.728;6.674;2022-08-02T03:10:29;5.70;;;5.10;;
4047;SDS011;2038;51.728;6.674;2022-08-02T03:12:57;9.57;;;6.53;;
4047;SDS011;2038;51.728;6.674;2022-08-02T03:15:25;8.83;;;6.33;;
4047;SDS011;2038;51.728;6.674;2022-08-02T03:17:53;7.40;;;6.60;;
4047;SDS011;2038;51.728;6.674;2022-08-02T03:20:19;8.57;;;5.80;;
4047;SDS011;2038;51.728;6.674;2022-08-02T03:22:46;6.80;;;5.77;;
4047;SDS011;2038;51.728;6.674;2022-08-02T03:25:14;10.73;;;7.07;;
4047;SDS011;2038;51.728;6.674;2022-08-02T03:27:42;8.20;;;6.83;;
4047;SDS011;2038;51.728;6.674;2022-08-02T03:30:09;7.73;;;5.87;;
4047;SDS011;2038;51.728;6.674;2022-08-02T03:32:39;6.20;;;5.60;;
4047;SDS011;2038;51.728;6.674;2022-08-02T03:35:13;6.50;;;5.80;;
4047;SDS011;2038;51.728;6.674;2022-08-02T03:37:43;6.87;;;5.27;;
4047;SDS011;2038;51.728;6.674;2022-08-02T03:40:11;7.00;;;6.23;;
4047;SDS011;2038;51.728;6.674;2022-08-02T03:42:38;8.57;;;6.33;;
4047;SDS011;2038;51.728;6.674;2022-08-02T03:45:06;6.23;;;5.47;;
4047;SDS011;2038;51.728;6.674;2022-08-02T03:47:37;9.40;;;6.10;;
4047;SDS011;2038;51.728;6.674;2022-08-02T03:50:06;8.30;;;5.90;;
4047;SDS011;2038;51.728;6.674;2022-08-02T03:52:37;7.47;;;5.60;;
4047;SDS011;2038;51.728;6.674;2022-08-02T03:55:08;7.90;;;6.10;;
4047;SDS011;2038;51.728;6.674;2022-08-02T03:57:37;9.07;;;6.03;;
4047;SDS011;2038;51.728;6.674;2022-08-02T04:00:06;6.27;;;5.53;;
4047;SDS011;2038;51.728;6.674;2022-08-02T04:02:36;9.10;;;6.43;;
4047;SDS011;2038;51.728;6.674;2022-08-02T04:05:03;8.17;;;6.00;;
4047;SDS011;2038;51.728;6.674;2022-08-02T04:07:30;8.23;;;6.50;;
4047;SDS011;2038;51.728;6.674;2022-08-02T04:09:56;9.20;;;6.90;;
4047;SDS011;2038;51.728;6.674;2022-08-02T04:12:22;8.70;;;5.97;;
4047;SDS011;2038;51.728;6.674;2022-08-02T04:14:48;9.37;;;6.40;;
4047;SDS011;2038;51.728;6.674;2022-08-02T04:17:14;8.60;;;7.47;;
4047;SDS011;2038;51.728;6.674;2022-08-02T04:19:49;10.10;;;7.67;;
4047;SDS011;2038;51.728;6.674;2022-08-02T04:22:24;10.13;;;6.30;;
4047;SDS011;2038;51.728;6.674;2022-08-02T04:25:13;8.57;;;5.83;;
4047;SDS011;2038;51.728;6.674;2022-08-02T04:27:44;9.03;;;6.03;;
4047;SDS011;2038;51.728;6.674;2022-08-02T04:30:12;8.93;;;6.93;;
4047;SDS011;2038;51.728;6.674;2022-08-02T04:32:41;6.63;;;6.00;;
4047;SDS011;2038;51.728;6.674;2022-08-02T04:35:10;7.73;;;6.70;;
4047;SDS011;2038;51.728;6.674;2022-08-02T04:37:37;7.63;;;6.00;;
4047;SDS011;2038;51.728;6.674;2022-08-02T04:40:07;11.27;;;7.17;;
4047;SDS011;2038;51.728;6.674;2022-08-02T04:42:39;8.07;;;5.40;;
4047;SDS011;2038;51.728;6.674;2022-08-02T04:45:06;7.60;;;6.83;;
4047;SDS011;2038;51.728;6.674;2022-08-02T04:47:34;13.87;;;6.47;;
4047;SDS011;2038;51.728;6.674;2022-08-02T04:50:01;7.03;;;6.00;;
4047;SDS011;2038;51.728;6.674;2022-08-02T04:52:28;8.77;;;7.10;;
4047;SDS011;2038;51.728;6.674;2022-08-02T04:54:54;10.23;;;7.20;;
4047;SDS011;2038;51.728;6.674;2022-08-02T04:57:20;7.03;;;6.10;;
4047;SDS011;2038;51.728;6.674;2022-08-02T05:00:25;8.23;;;6.37;;
4047;SDS011;2038;51.728;6.674;2022-08-02T05:02:56;7.30;;;6.00;;
4047;SDS011;2038;51.728;6.674;2022-08-02T05:05:24;7.60;;;5.53;;
4047;SDS011;2038;51.728;6.674;2022-08-02T05:07:50;7.23;;;6.43;;
4047;SDS011;2038;51.728;6.674;2022-08-02T05:10:17;8.10;;;6.47;;
4047;SDS011;2038;51.728;6.674;2022-08-02T05:12:44;6.67;;;5.97;;
4047;SDS011;2038;51.728;6.674;2022-08-02T05:15:10;8.60;;;6.50;;
4047;SDS011;2038;51.728;6.674;2022-08-02T05:17:40;9.10;;;5.80;;
4047;SDS011;2038;51.728;6.674;2022-08-02T05:20:07;10.50;;;6.57;;
4047;SDS011;2038;51.728;6.674;2022-08-02T05:22:33;7.47;;;6.70;;
4047;SDS011;2038;51.728;6.674;2022-08-02T05:25:00;11.90;;;7.20;;
4047;SDS011;2038;51.728;6.674;2022-08-02T05:27:26;9.07;;;6.60;;
4047;SDS011;2038;51.728;6.674;2022-08-02T05:29:52;8.13;;;7.13;;
4047;SDS011;2038;51.728;6.674;2022-08-02T05:32:18;14.83;;;7.70;;
4047;SDS011;2038;51.728;6.674;2022-08-02T05:34:45;12.10;;;8.37;;
4047;SDS011;2038;51.728;6.674;2022-08-02T05:37:11;10.93;;;7.60;;
4047;SDS011;2038;51.728;6.674;2022-08-02T05:39:37;11.87;;;8.77;;
4047;SDS011;2038;51.728;6.674;2022-08-02T05:42:04;11.50;;;8.10;;
4047;SDS011;2038;51.728;6.674;2022-08-02T05:44:30;12.73;;;8.00;;
4047;SDS011;2038;51.728;6.674;2022-08-02T05:46:56;12.20;;;7.47;;
4047;SDS011;2038;51.728;6.674;2022-08-02T05:49:23;11.10;;;7.70;;
4047;SDS011;2038;51.728;6.674;2022-08-02T06:00:23;15.73;;;8.30;;
4047;SDS011;2038;51.728;6.674;2022-08-02T06:03:02;12.43;;;7.93;;
4047;SDS011;2038;51.728;6.674;2022-08-02T06:05:40;10.30;;;8.23;;
4047;SDS011;2038;51.728;6.674;2022-08-02T06:08:36;12.70;;;6.97;;
4047;SDS011;2038;51.728;6.674;2022-08-02T06:11:11;11.60;;;8.13;;
4047;SDS011;2038;51.728;6.674;2022-08-02T06:13:41;10.27;;;8.77;;
4047;SDS011;2038;51.728;6.674;2022-08-02T06:16:09;11.80;;;8.17;;
4047;SDS011;2038;51.728;6.674;2022-08-02T06:18:36;21.60;;;9.53;;
4047;SDS011;2038;51.728;6.674;2022-08-02T06:21:05;12.53;;;7.40;;
4047;SDS011;2038;51.728;6.674;2022-08-02T06:23:38;14.13;;;8.47;;
4047;SDS011;2038;51.728;6.674;2022-08-02T06:26:06;16.50;;;9.60;;
4047;SDS011;2038;51.728;6.674;2022-08-02T06:28:37;13.10;;;8.10;;
4047;SDS011;2038;51.728;6.674;2022-08-02T06:31:07;20.17;;;9.10;;
4047;SDS011;2038;51.728;6.674;2022-08-02T06:33:34;14.20;;;9.93;;
4047;SDS011;2038;51.728;6.674;2022-08-02T06:36:06;14.70;;;9.23;;
4047;SDS011;2038;51.728;6.674;2022-08-02T06:38:55;14.30;;;10.30;;
4047;SDS011;2038;51.728;6.674;2022-08-02T06:41:39;14.20;;;10.17;;
4047;SDS011;2038;51.728;6.674;2022-08-02T06:44:08;22.17;;;12.17;;
4047;SDS011;2038;51.728;6.674;2022-08-02T06:46:35;20.10;;;10.10;;
4047;SDS011;2038;51.728;6.674;2022-08-02T06:49:01;15.17;;;9.93;;
4047;SDS011;2038;51.728;6.674;2022-08-02T06:51:29;19.17;;;11.10;;
4047;SDS011;2038;51.728;6.674;2022-08-02T06:53:56;13.33;;;10.20;;
4047;SDS011;2038;51.728;6.674;2022-08-02T06:56:23;16.47;;;11.47;;
4047;SDS011;2038;51.728;6.674;2022-08-02T06:58:49;18.50;;;13.43;;
4047;SDS011;2038;51.728;6.674;2022-08-02T07:01:16;16.77;;;11.10;;
4047;SDS011;2038;51.728;6.674;2022-08-02T07:03:43;16.10;;;12.43;;
4047;SDS011;2038;51.728;6.674;2022-08-02T07:06:10;18.60;;;11.87;;
4047;SDS011;2038;51.728;6.674;2022-08-02T07:08:36;21.00;;;12.67;;
4047;SDS011;2038;51.728;6.674;2022-08-02T07:11:04;25.17;;;12.63;;
4047;SDS011;2038;51.728;6.674;2022-08-02T07:13:32;18.63;;;12.63;;
4047;SDS011;2038;51.728;6.674;2022-08-02T07:16:00;18.00;;;12.70;;
4047;SDS011;2038;51.728;6.674;2022-08-02T07:18:28;16.40;;;12.67;;
4047;SDS011;2038;51.728;6.674;2022-08-02T07:20:54;20.57;;;13.33;;
4047;SDS011;2038;51.728;6.674;2022-08-02T07:23:21;21.27;;;13.07;;
4047;SDS011;2038;51.728;6.674;2022-08-02T07:25:47;18.20;;;12.20;;
4047;SDS011;2038;51.728;6.674;2022-08-02T07:28:13;32.83;;;14.20;;
4047;SDS011;2038;51.728;6.674;2022-08-02T07:30:40;22.70;;;12.53;;
4047;SDS011;2038;51.728;6.674;2022-08-02T07:33:08;17.43;;;11.03;;
4047;SDS011;2038;51.728;6.674;2022-08-02T07:35:34;24.33;;;12.57;;
4047;SDS011;2038;51.728;6.674;2022-08-02T07:38:01;23.13;;;10.73;;
4047;SDS011;2038;51.728;6.674;2022-08-02T07:40:27;20.03;;;11.67;;
4047;SDS011;2038;51.728;6.674;2022-08-02T07:42:55;15.00;;;10.93;;
4047;SDS011;2038;51.728;6.674;2022-08-02T07:45:23;24.50;;;11.17;;
4047;SDS011;2038;51.728;6.674;2022-08-02T07:47:50;19.57;;;10.50;;
4047;SDS011;2038;51.728;6.674;2022-08-02T07:50:17;25.37;;;10.53;;
4047;SDS011;2038;51.728;6.674;2022-08-02T07:52:45;14.13;;;8.80;;
4047;SDS011;2038;51.728;6.674;2022-08-02T07:55:13;17.80;;;8.43;;
4047;SDS011;2038;51.728;6.674;2022-08-02T07:57:42;13.70;;;7.80;;
4047;SDS011;2038;51.728;6.674;2022-08-02T08:00:10;12.37;;;6.97;;
4047;SDS011;2038;51.728;6.674;2022-08-02T08:02:37;18.67;;;8.33;;
4047;SDS011;2038;51.728;6.674;2022-08-02T08:05:04;13.93;;;7.30;;
4047;SDS011;2038;51.728;6.674;2022-08-02T08:07:31;11.53;;;7.27;;
4047;SDS011;2038;51.728;6.674;2022-08-02T08:09:58;13.90;;;6.00;;
4047;SDS011;2038;51.728;6.674;2022-08-02T08:12:25;9.30;;;4.47;;
4047;SDS011;2038;51.728;6.674;2022-08-02T08:14:52;8.63;;;5.93;;
4047;SDS011;2038;51.728;6.674;2022-08-02T08:17:18;22.10;;;7.93;;
4047;SDS011;2038;51.728;6.674;2022-08-02T08:19:44;11.20;;;6.63;;
4047;SDS011;2038;51.728;6.674;2022-08-02T08:22:11;7.10;;;5.83;;
4047;SDS011;2038;51.728;6.674;2022-08-02T08:24:37;12.40;;;6.50;;
4047;SDS011;2038;51.728;6.674;2022-08-02T08:27:04;12.03;;;6.50;;
4047;SDS011;2038;51.728;6.674;2022-08-02T08:29:30;11.63;;;6.53;;
4047;SDS011;2038;51.728;6.674;2022-08-02T08:31:57;11.47;;;5.77;;
4047;SDS011;2038;51.728;6.674;2022-08-02T08:34:23;13.10;;;7.17;;
4047;SDS011;2038;51.728;6.674;2022-08-02T08:36:51;10.97;;;8.17;;
4047;SDS011;2038;51.728;6.674;2022-08-02T08:39:17;10.70;;;6.83;;
4047;SDS011;2038;51.728;6.674;2022-08-02T08:41:43;12.70;;;7.67;;
4047;SDS011;2038;51.728;6.674;2022-08-02T08:44:10;12.97;;;7.10;;
4047;SDS011;2038;51.728;6.674;2022-08-02T08:46:37;12.83;;;7.50;;
4047;SDS011;2038;51.728;6.674;2022-08-02T08:49:09;8.33;;;6.37;;
4047;SDS011;2038;51.728;6.674;2022-08-02T08:51:49;8.40;;;6.27;;
4047;SDS011;2038;51.728;6.674;2022-08-02T08:54:20;8.63;;;7.80;;
4047;SDS011;2038;51.728;6.674;2022-08-02T08:56:51;18.43;;;6.50;;
4047;SDS011;2038;51.728;6.674;2022-08-02T08:59:20;11.07;;;7.13;;
4047;SDS011;2038;51.728;6.674;2022-08-02T09:01:47;7.87;;;6.20;;
4047;SDS011;2038;51.728;6.674;2022-08-02T09:04:15;15.13;;;7.13;;
4047;SDS011;2038;51.728;6.674;2022-08-02T09:06:43;8.43;;;6.37;;
4047;SDS011;2038;51.728;6.674;2022-08-02T09:09:09;9.60;;;6.40;;
4047;SDS011;2038;51.728;6.674;2022-08-02T09:11:35;7.37;;;5.70;;
4047;SDS011;2038;51.728;6.674;2022-08-02T09:14:02;9.17;;;6.90;;
4047;SDS011;2038;51.728;6.674;2022-08-02T09:21:51;7.27;;;6.27;;
4047;SDS011;2038;51.728;6.674;2022-08-02T09:24:29;9.07;;;6.40;;
4047;SDS011;2038;51.728;6.674;2022-08-02T09:27:09;8.20;;;5.50;;
4047;SDS011;2038;51.728;6.674;2022-08-02T09:29:48;10.00;;;6.50;;
4047;SDS011;2038;51.728;6.674;2022-08-02T09:32:18;10.70;;;6.77;;
4047;SDS011;2038;51.728;6.674;2022-08-02T09:37:20;10.80;;;7.60;;
4047;SDS011;2038;51.728;6.674;2022-08-02T09:39:52;22.10;;;8.93;;
4047;SDS011;2038;51.728;6.674;2022-08-02T09:42:20;22.83;;;8.50;;
4047;SDS011;2038;51.728;6.674;2022-08-02T09:44:57;12.50;;;8.50;;
4047;SDS011;2038;51.728;6.674;2022-08-02T09:47:25;14.00;;;8.33;;
4047;SDS011;2038;51.728;6.674;2022-08-02T09:49:54;13.43;;;7.90;;
4047;SDS011;2038;51.728;6.674;2022-08-02T09:52:31;11.00;;;8.70;;
4047;SDS011;2038;51.728;6.674;2022-08-02T09:55:04;11.97;;;7.13;;
4047;SDS011;2038;51.728;6.674;2022-08-02T09:57:30;11.20;;;7.90;;
4047;SDS011;2038;51.728;6.674;2022-08-02T10:00:05;7.73;;;6.80;;
4047;SDS011;2038;51.728;6.674;2022-08-02T10:02:35;9.33;;;6.20;;
4047;SDS011;2038;51.728;6.674;2022-08-02T10:05:01;8.23;;;6.40;;
4047;SDS011;2038;51.728;6.674;2022-08-02T10:07:28;8.23;;;5.80;;
4047;SDS011;2038;51.728;6.674;2022-08-02T10:09:55;8.00;;;4.80;;
4047;SDS011;2038;51.728;6.674;2022-08-02T10:12:22;6.13;;;5.23;;
4047;SDS011;2038;51.728;6.674;2022-08-02T10:14:49;5.97;;;5.00;;
4047;SDS011;2038;51.728;6.674;2022-08-02T10:17:18;5.43;;;4.90;;
4047;SDS011;2038;51.728;6.674;2022-08-02T10:19:45;12.27;;;6.93;;
4047;SDS011;2038;51.728;6.674;2022-08-02T10:22:13;6.53;;;5.47;;
4047;SDS011;2038;51.728;6.674;2022-08-02T10:24:41;7.30;;;4.47;;
4047;SDS011;2038;51.728;6.674;2022-08-02T10:27:18;11.87;;;6.07;;
4047;SDS011;2038;51.728;6.674;2022-08-02T10:29:45;7.87;;;5.30;;
4047;SDS011;2038;51.728;6.674;2022-08-02T10:32:25;12.90;;;5.40;;
4047;SDS011;2038;51.728;6.674;2022-08-02T10:35:03;9.47;;;5.10;;
4047;SDS011;2038;51.728;6.674;2022-08-02T10:37:34;5.50;;;5.00;;
4047;SDS011;2038;51.728;6.674;2022-08-02T10:40:05;5.63;;;5.00;;
4047;SDS011;2038;51.728;6.674;2022-08-02T10:42:48;7.30;;;5.00;;
4047;SDS011;2038;51.728;6.674;2022-08-02T10:45:18;9.20;;;5.50;;
4047;SDS011;2038;51.728;6.674;2022-08-02T10:47:55;7.60;;;5.10;;
4047;SDS011;2038;51.728;6.674;2022-08-02T10:53:25;17.87;;;3.83;;
4047;SDS011;2038;51.728;6.674;2022-08-02T10:55:59;4.30;;;3.80;;
4047;SDS011;2038;51.728;6.674;2022-08-02T10:58:29;10.30;;;4.40;;
4047;SDS011;2038;51.728;6.674;2022-08-02T11:00:58;7.07;;;4.37;;
4047;SDS011;2038;51.728;6.674;2022-08-02T11:03:58;8.70;;;3.80;;
4047;SDS011;2038;51.728;6.674;2022-08-02T11:06:24;5.37;;;3.53;;
4047;SDS011;2038;51.728;6.674;2022-08-02T11:09:11;11.47;;;4.50;;
4047;SDS011;2038;51.728;6.674;2022-08-02T11:12:24;6.60;;;3.80;;
4047;SDS011;2038;51.728;6.674;2022-08-02T11:15:06;6.37;;;4.00;;
4047;SDS011;2038;51.728;6.674;2022-08-02T11:17:50;9.70;;;3.93;;
4047;SDS011;2038;51.728;6.674;2022-08-02T11:20:22;5.83;;;4.07;;
4047;SDS011;2038;51.728;6.674;2022-08-02T11:22:51;6.30;;;3.47;;
4047;SDS011;2038;51.728;6.674;2022-08-02T11:25:38;4.60;;;3.40;;
4047;SDS011;2038;51.728;6.674;2022-08-02T11:28:08;8.00;;;3.47;;
4047;SDS011;2038;51.728;6.674;2022-08-02T11:30:36;6.60;;;3.50;;
4047;SDS011;2038;51.728;6.674;2022-08-02T11:33:03;8.50;;;3.83;;
4047;SDS011;2038;51.728;6.674;2022-08-02T11:35:33;5.43;;;3.87;;
4047;SDS011;2038;51.728;6.674;2022-08-02T11:38:16;7.43;;;3.70;;
4047;SDS011;2038;51.728;6.674;2022-08-02T11:40:45;4.20;;;3.80;;
4047;SDS011;2038;51.728;6.674;2022-08-02T11:43:19;7.53;;;3.83;;
4047;SDS011;2038;51.728;6.674;2022-08-02T11:45:51;4.17;;;3.67;;
4047;SDS011;2038;51.728;6.674;2022-08-02T11:51:16;3.50;;;3.20;;
4047;SDS011;2038;51.728;6.674;2022-08-02T11:53:44;6.73;;;3.43;;
4047;SDS011;2038;51.728;6.674;2022-08-02T11:56:13;10.93;;;3.50;;
4047;SDS011;2038;51.728;6.674;2022-08-02T12:01:29;3.47;;;3.17;;
4047;SDS011;2038;51.728;6.674;2022-08-02T12:03:57;8.80;;;3.37;;
4047;SDS011;2038;51.728;6.674;2022-08-02T12:06:26;5.13;;;2.80;;
4047;SDS011;2038;51.728;6.674;2022-08-02T12:09:12;4.47;;;3.20;;
4047;SDS011;2038;51.728;6.674;2022-08-02T12:11:39;4.30;;;3.20;;
4047;SDS011;2038;51.728;6.674;2022-08-02T12:14:06;5.93;;;3.03;;
4047;SDS011;2038;51.728;6.674;2022-08-02T12:16:33;2.80;;;2.60;;
4047;SDS011;2038;51.728;6.674;2022-08-02T12:19:21;4.63;;;2.70;;
4047;SDS011;2038;51.728;6.674;2022-08-02T12:24:46;5.17;;;2.83;;
4047;SDS011;2038;51.728;6.674;2022-08-02T12:30:06;3.47;;;2.73;;
4047;SDS011;2038;51.728;6.674;2022-08-02T12:32:35;3.20;;;2.70;;
4047;SDS011;2038;51.728;6.674;2022-08-02T12:37:46;2.30;;;2.10;;
4047;SDS011;2038;51.728;6.674;2022-08-02T12:40:18;4.07;;;2.83;;
4047;SDS011;2038;51.728;6.674;2022-08-02T12:42:51;3.47;;;2.70;;
4047;SDS011;2038;51.728;6.674;2022-08-02T12:45:21;4.33;;;3.23;;
4047;SDS011;2038;51.728;6.674;2022-08-02T12:47:51;7.53;;;3.40;;
4047;SDS011;2038;51.728;6.674;2022-08-02T12:50:21;2.80;;;2.60;;
4047;SDS011;2038;51.728;6.674;2022-08-02T12:53:01;5.33;;;3.07;;
4047;SDS011;2038;51.728;6.674;2022-08-02T12:55:33;6.70;;;3.00;;
4047;SDS011;2038;51.728;6.674;2022-08-02T12:58:10;2.77;;;2.57;;
4047;SDS011;2038;51.728;6.674;2022-08-02T13:00:36;4.17;;;2.90;;
4047;SDS011;2038;51.728;6.674;2022-08-02T13:03:04;4.37;;;2.37;;
4047;SDS011;2038;51.728;6.674;2022-08-02T13:05:35;2.40;;;2.20;;
4047;SDS011;2038;51.728;6.674;2022-08-02T13:08:02;3.50;;;2.73;;
4047;SDS011;2038;51.728;6.674;2022-08-02T13:10:29;7.20;;;2.73;;
4047;SDS011;2038;51.728;6.674;2022-08-02T13:12:55;4.03;;;3.00;;
4047;SDS011;2038;51.728;6.674;2022-08-02T13:15:21;7.87;;;2.83;;
4047;SDS011;2038;51.728;6.674;2022-08-02T13:17:48;4.60;;;2.63;;
4047;SDS011;2038;51.728;6.674;2022-08-02T13:20:14;3.13;;;2.87;;
4047;SDS011;2038;51.728;6.674;2022-08-02T13:22:41;3.07;;;2.63;;
4047;SDS011;2038;51.728;6.674;2022-08-02T13:25:07;3.70;;;3.00;;
4047;SDS011;2038;51.728;6.674;2022-08-02T13:27:34;4.13;;;2.33;;
4047;SDS011;2038;51.728;6.674;2022-08-02T13:30:02;10.30;;;2.80;;
4047;SDS011;2038;51.728;6.674;2022-08-02T13:32:30;3.50;;;2.60;;
4047;SDS011;2038;51.728;6.674;2022-08-02T13:34:57;4.40;;;2.87;;
4047;SDS011;2038;51.728;6.674;2022-08-02T13:37:24;4.20;;;3.07;;
4047;SDS011;2038;51.728;6.674;2022-08-02T13:39:50;3.13;;;2.80;;
4047;SDS011;2038;51.728;6.674;2022-08-02T13:42:16;3.90;;;2.50;;
4047;SDS011;2038;51.728;6.674;2022-08-02T13:44:43;4.80;;;2.87;;
4047;SDS011;2038;51.728;6.674;2022-08-02T13:47:09;5.37;;;2.90;;
4047;SDS011;2038;51.728;6.674;2022-08-02T13:49:36;3.13;;;2.77;;
4047;SDS011;2038;51.728;6.674;2022-08-02T13:52:03;6.40;;;2.50;;
4047;SDS011;2038;51.728;6.674;2022-08-02T13:54:29;7.63;;;2.90;;
4047;SDS011;2038;51.728;6.674;2022-08-02T13:56:56;7.27;;;2.90;;
4047;SDS011;2038;51.728;6.674;2022-08-02T13:59:22;3.10;;;2.40;;
4047;SDS011;2038;51.728;6.674;2022-08-02T14:01:49;3.50;;;3.00;;
4047;SDS011;2038;51.728;6.674;2022-08-02T14:04:16;2.67;;;2.47;;
4047;SDS011;2038;51.728;6.674;2022-08-02T14:06:42;4.27;;;2.80;;
4047;SDS011;2038;51.728;6.674;2022-08-02T14:09:08;2.40;;;1.93;;
4047;SDS011;2038;51.728;6.674;2022-08-02T14:11:34;5.45;;;2.10;;
4047;SDS011;2038;51.728;6.674;2022-08-02T14:14:01;2.60;;;2.35;;
4047;SDS011;2038;51.728;6.674;2022-08-02T14:16:27;6.95;;;2.80;;
4047;SDS011;2038;51.728;6.674;2022-08-02T14:18:54;3.83;;;2.45;;
4047;SDS011;2038;51.728;6.674;2022-08-02T14:21:21;2.43;;;2.20;;
4047;SDS011;2038;51.728;6.674;2022-08-02T14:23:47;6.27;;;3.03;;
4047;SDS011;2038;51.728;6.674;2022-08-02T14:26:14;3.10;;;2.07;;
4047;SDS011;2038;51.728;6.674;2022-08-02T14:28:40;3.05;;;1.90;;
4047;SDS011;2038;51.728;6.674;2022-08-02T14:31:06;1.95;;;1.80;;
4047;SDS011;2038;51.728;6.674;2022-08-02T14:33:32;3.00;;;1.90;;
4047;SDS011;2038;51.728;6.674;2022-08-02T14:35:59;2.27;;;1.90;;
4047;SDS011;2038;51.728;6.674;2022-08-02T14:38:25;4.30;;;1.90;;
4047;SDS011;2038;51.728;6.674;2022-08-02T14:40:51;2.58;;;2.38;;
4047;SDS011;2038;51.728;6.674;2022-08-02T14:43:18;3.92;;;2.28;;
4047;SDS011;2038;51.728;6.674;2022-08-02T14:46:02;2.53;;;1.97;;
4047;SDS011;2038;51.728;6.674;2022-08-02T14:48:29;3.58;;;2.05;;
4047;SDS011;2038;51.728;6.674;2022-08-02T14:50:55;7.05;;;2.13;;
4047;SDS011;2038;51.728;6.674;2022-08-02T14:53:21;4.35;;;2.10;;
4047;SDS011;2038;51.728;6.674;2022-08-02T14:55:47;3.33;;;2.33;;
4047;SDS011;2038;51.728;6.674;2022-08-02T14:58:14;3.10;;;2.38;;
4047;SDS011;2038;51.728;6.674;2022-08-02T15:00:41;4.20;;;1.85;;
4047;SDS011;2038;51.728;6.674;2022-08-02T15:03:07;2.53;;;2.20;;
4047;SDS011;2038;51.728;6.674;2022-08-02T15:05:36;4.25;;;2.33;;
4047;SDS011;2038;51.728;6.674;2022-08-02T15:08:03;5.97;;;2.00;;
4047;SDS011;2038;51.728;6.674;2022-08-02T15:10:30;3.33;;;2.22;;
4047;SDS011;2038;51.728;6.674;2022-08-02T15:12:56;2.65;;;2.03;;
4047;SDS011;2038;51.728;6.674;2022-08-02T15:15:23;2.28;;;2.05;;
4047;SDS011;2038;51.728;6.674;2022-08-02T15:17:50;3.88;;;2.22;;
4047;SDS011;2038;51.728;6.674;2022-08-02T15:20:16;6.47;;;2.38;;
4047;SDS011;2038;51.728;6.674;2022-08-02T15:22:43;2.80;;;2.50;;
4047;SDS011;2038;51.728;6.674;2022-08-02T15:25:09;7.45;;;2.30;;
4047;SDS011;2038;51.728;6.674;2022-08-02T15:27:35;5.90;;;2.08;;
4047;SDS011;2038;51.728;6.674;2022-08-02T15:30:01;3.00;;;2.10;;
4047;SDS011;2038;51.728;6.674;2022-08-02T15:32:28;4.20;;;2.35;;
4047;SDS011;2038;51.728;6.674;2022-08-02T15:34:54;2.58;;;2.38;;
4047;SDS011;2038;51.728;6.674;2022-08-02T15:37:21;2.33;;;2.13;;
4047;SDS011;2038;51.728;6.674;2022-08-02T15:39:47;2.92;;;2.28;;
4047;SDS011;2038;51.728;6.674;2022-08-02T15:42:13;2.13;;;1.90;;
4047;SDS011;2038;51.728;6.674;2022-08-02T15:44:42;3.95;;;2.15;;
4047;SDS011;2038;51.728;6.674;2022-08-02T15:47:09;4.78;;;2.42;;
4047;SDS011;2038;51.728;6.674;2022-08-02T15:49:35;3.15;;;2.08;;
4047;SDS011;2038;51.728;6.674;2022-08-02T15:52:02;2.10;;;1.52;;
4047;SDS011;2038;51.728;6.674;2022-08-02T15:54:29;2.38;;;2.10;;
4047;SDS011;2038;51.728;6.674;2022-08-02T15:56:55;2.05;;;1.83;;
4047;SDS011;2038;51.728;6.674;2022-08-02T15:59:21;2.75;;;2.55;;
4047;SDS011;2038;51.728;6.674;2022-08-02T16:01:47;3.13;;;2.35;;
4047;SDS011;2038;51.728;6.674;2022-08-02T16:04:14;3.42;;;1.77;;